Time;durP1;ratioP1;P1;durP2;ratioP2;P2;SDS_P1;SDS_P2;PMS_P1;PMS_P2;Temp;Humidity;BMP_temperature;BMP_pressure;BME280_temperature;BME280_humidity;BME280_pressure;Samples;Min_cycle;Max_cycle;Signal;HPM_P1;HPM_P2
2022/01/15 00:01:41;;;;;;;;;10.75;10.75;;;;;3.98;70.09;102571.88;5089573;28;45448;-82
2022/01/15 00:04:06;;;;;;;;;15.50;9.50;;;;;4.57;69.20;102671.06;5082150;27;45385;-82
2022/01/15 00:06:32;;;;;;;;;10.00;10.00;;;;;4.74;69.13;102689.31;5080960;28;47791;-82
2022/01/15 00:08:57;;;;;;;;;13.25;11.00;;;;;4.75;69.44;102698.81;5062536;28;46180;-82
2022/01/15 00:11:23;;;;;;;;;16.00;13.25;;;;;4.27;69.42;102615.81;5080680;28;45369;-82
2022/01/15 00:13:58;;;;;;;;;13.50;13.50;;;;;4.04;69.20;102591.97;5080930;28;45713;-83
2022/01/15 00:16:45;;;;;;;;;12.50;11.50;;;;;4.34;70.05;102635.13;5081740;28;45656;-84
2022/01/15 00:19:13;;;;;;;;;21.00;11.50;;;;;4.65;69.53;102673.22;5080922;28;46160;-81
2022/01/15 00:21:38;;;;;;;;;14.25;12.75;;;;;4.22;69.36;102601.75;5080875;28;45346;-83
2022/01/15 00:24:04;;;;;;;;;13.25;6.50;;;;;4.34;69.33;102623.16;5081303;28;45636;-83
2022/01/15 00:26:30;;;;;;;;;11.75;11.00;;;;;4.65;69.71;102689.63;5081056;28;45468;-83
2022/01/15 00:28:56;;;;;;;;;11.25;11.25;;;;;4.61;69.63;102673.84;5080840;28;45362;-82
2022/01/15 00:31:21;;;;;;;;;15.75;14.00;;;;;4.22;69.62;102619.78;5080906;28;45389;-83
2022/01/15 00:33:47;;;;;;;;;22.00;13.00;;;;;4.56;69.47;102681.28;5080604;28;45370;-82
2022/01/15 00:36:12;;;;;;;;;13.50;10.50;;;;;3.87;70.07;102558.28;5059337;28;45598;-83
2022/01/15 00:38:38;;;;;;;;;16.75;11.00;;;;;4.42;69.44;102637.44;5082532;28;45430;-82
2022/01/15 00:41:03;;;;;;;;;12.50;9.75;;;;;4.12;69.09;102585.66;5081867;28;45375;-82
2022/01/15 00:43:28;;;;;;;;;11.75;10.50;;;;;4.50;69.65;102640.50;5064263;28;45419;-81
2022/01/15 00:45:57;;;;;;;;;17.25;12.25;;;;;4.09;69.59;102584.56;5064817;28;45419;-82
2022/01/15 00:48:22;;;;;;;;;16.00;13.00;;;;;4.56;69.59;102664.13;5063824;28;45363;-83
2022/01/15 00:50:48;;;;;;;;;18.25;14.75;;;;;3.89;69.22;102543.81;5063933;28;45490;-83
2022/01/15 00:53:13;;;;;;;;;11.25;10.50;;;;;4.53;69.47;102656.19;5063852;28;45677;-82
2022/01/15 00:55:38;;;;;;;;;14.75;12.50;;;;;4.38;69.23;102638.00;5064023;28;45398;-81
2022/01/15 00:58:04;;;;;;;;;14.25;12.75;;;;;3.79;69.37;102546.56;5063248;28;45379;-82
2022/01/15 01:00:29;;;;;;;;;14.25;12.00;;;;;3.97;69.82;102559.78;5063384;28;45351;-81
2022/01/15 01:02:56;;;;;;;;;18.00;14.75;;;;;4.30;69.58;102623.75;5063525;28;45358;-82
2022/01/15 01:05:25;;;;;;;;;9.25;7.00;;;;;4.53;69.69;102645.84;5064403;28;45418;-85
2022/01/15 01:07:51;;;;;;;;;15.25;9.50;;;;;4.55;69.51;102653.69;5064577;28;45410;-83
2022/01/15 01:21:22;;;;;;;;;9.50;7.50;;;;;4.09;70.00;102576.81;5063225;28;45837;-81
2022/01/15 01:23:48;;;;;;;;;14.75;9.75;;;;;3.97;69.56;102561.44;5062688;28;45409;-82
2022/01/15 01:26:28;;;;;;;;;9.00;9.00;;;;;4.27;69.40;102608.97;5063168;28;45344;-82
2022/01/15 01:29:05;;;;;;;;;11.50;11.50;;;;;4.23;70.09;102588.91;5062993;28;45926;-82
2022/01/15 01:31:39;;;;;;;;;14.50;11.50;;;;;4.13;69.29;102578.81;5063062;28;45355;-82
2022/01/15 01:34:12;;;;;;;;;16.75;10.25;;;;;3.85;69.14;102515.16;5070061;28;45345;-82
2022/01/15 01:39:12;;;;;;;;;19.00;14.50;;;;;4.12;69.96;102580.50;5083153;28;45970;-82
2022/01/15 01:41:41;;;;;;;;;14.75;13.25;;;;;3.80;69.73;102518.34;5054346;28;45534;-82
2022/01/15 01:44:09;;;;;;;;;16.00;15.00;;;;;4.36;70.30;102618.09;5024612;28;45443;-81
2022/01/15 01:46:38;;;;;;;;;17.00;14.25;;;;;4.38;69.96;102622.53;5042822;28;45574;-81
2022/01/15 01:49:04;;;;;;;;;12.25;11.00;;;;;3.50;70.34;102482.06;5041987;28;46310;-82
2022/01/15 01:51:35;;;;;;;;;11.00;10.50;;;;;4.32;70.08;102619.59;5042591;28;45510;-82
2022/01/15 01:54:07;;;;;;;;;6.00;6.00;;;;;3.84;69.69;102529.75;5042789;28;45431;-83
2022/01/15 01:56:33;;;;;;;;;9.50;8.75;;;;;4.27;70.14;102603.81;5042759;28;45323;-82
2022/01/15 01:58:59;;;;;;;;;9.50;9.50;;;;;4.22;70.15;102599.16;5042152;28;46052;-82
2022/01/15 02:01:25;;;;;;;;;14.00;13.50;;;;;4.32;69.59;102604.13;5042287;28;45477;-82
2022/01/15 02:03:51;;;;;;;;;9.00;8.75;;;;;3.66;70.06;102488.22;5042443;28;45478;-81
2022/01/15 02:06:19;;;;;;;;;14.00;9.75;;;;;4.34;69.99;102605.09;5036212;28;45763;-81
2022/01/15 02:08:45;;;;;;;;;6.25;3.00;;;;;3.60;70.38;102464.63;5042257;28;45589;-82
2022/01/15 02:11:11;;;;;;;;;13.50;12.00;;;;;4.07;70.06;102545.78;5042416;28;45550;-82
2022/01/15 02:13:39;;;;;;;;;18.75;14.25;;;;;4.01;70.02;102532.53;5042290;28;45377;-81
2022/01/15 02:16:05;;;;;;;;;15.75;15.25;;;;;3.83;70.61;102507.31;5042457;28;45446;-82
2022/01/15 02:18:33;;;;;;;;;12.25;5.25;;;;;3.66;69.91;102475.31;5041908;28;45450;-81
2022/01/15 02:23:51;;;;;;;;;13.25;10.75;;;;;3.67;69.93;102479.69;5004535;28;45496;-82
2022/01/15 02:26:20;;;;;;;;;2.75;1.00;;;;;4.22;69.92;102584.56;5042101;28;45904;-83
2022/01/15 02:28:58;;;;;;;;;16.00;14.50;;;;;3.84;70.05;102526.25;5041942;28;46019;-82
2022/01/15 02:31:25;;;;;;;;;21.25;18.00;;;;;3.89;70.30;102536.06;5042202;28;45848;-82
2022/01/15 02:33:53;;;;;;;;;18.50;14.50;;;;;3.46;69.93;102476.59;5034300;28;45392;-82
2022/01/15 02:36:21;;;;;;;;;13.50;13.50;;;;;3.57;70.42;102506.53;5042346;28;45878;-80
2022/01/15 02:38:47;;;;;;;;;18.75;14.50;;;;;3.72;70.50;102537.56;5042465;28;45747;-80
2022/01/15 02:41:14;;;;;;;;;16.50;13.50;;;;;3.41;70.56;102486.59;5048969;28;45391;-81
2022/01/15 02:43:40;;;;;;;;;16.25;12.00;;;;;3.98;70.99;102582.16;5082600;28;45416;-82
2022/01/15 02:46:23;;;;;;;;;17.25;15.50;;;;;3.79;71.13;102547.47;5082775;28;45461;-82
2022/01/15 02:48:57;;;;;;;;;15.00;12.25;;;;;3.27;70.53;102445.38;5081979;28;45692;-82
2022/01/15 02:51:24;;;;;;;;;16.50;10.75;;;;;3.50;71.01;102474.34;5082217;28;45365;-81
2022/01/15 02:53:57;;;;;;;;;16.75;15.75;;;;;3.33;71.18;102447.47;5082179;28;45735;-81
2022/01/15 02:56:23;;;;;;;;;15.50;15.50;;;;;4.05;70.54;102561.16;5082598;28;45437;-82
2022/01/15 02:58:49;;;;;;;;;16.00;10.75;;;;;3.82;70.54;102510.69;5082090;28;45472;-81
2022/01/15 03:01:15;;;;;;;;;14.50;10.00;;;;;3.88;71.21;102535.97;5080958;28;45494;-82
2022/01/15 03:03:40;;;;;;;;;18.00;15.25;;;;;3.36;70.83;102436.47;5082148;28;45476;-82
2022/01/15 03:06:13;;;;;;;;;19.00;13.75;;;;;3.38;70.48;102432.31;5082638;28;45386;-82
2022/01/15 03:08:40;;;;;;;;;12.75;10.50;;;;;4.11;70.84;102570.09;5081824;28;45510;-82
2022/01/15 03:11:07;;;;;;;;;16.50;11.00;;;;;3.35;70.87;102421.81;5082062;28;45465;-81
2022/01/15 03:13:33;;;;;;;;;16.25;13.75;;;;;3.74;70.64;102492.16;5081636;28;45391;-81
2022/01/15 03:15:58;;;;;;;;;16.50;13.00;;;;;3.29;70.99;102409.44;5081960;28;45429;-82
2022/01/15 03:18:24;;;;;;;;;16.50;10.75;;;;;3.92;70.52;102523.41;5082026;28;46051;-82
2022/01/15 03:20:49;;;;;;;;;18.50;12.50;;;;;4.09;70.16;102549.38;5081689;28;45298;-82
2022/01/15 03:23:14;;;;;;;;;11.00;11.00;;;;;4.09;69.60;102548.47;5046970;28;45371;-82
2022/01/15 03:25:40;;;;;;;;;10.75;10.75;;;;;3.72;70.72;102498.00;5081913;28;45312;-82
2022/01/15 03:28:07;;;;;;;;;13.75;12.50;;;;;3.74;69.79;102499.88;5080036;28;47124;-81
2022/01/15 03:30:32;;;;;;;;;16.00;11.00;;;;;3.99;69.68;102545.31;5081469;28;45481;-81
2022/01/15 03:32:58;;;;;;;;;15.00;12.25;;;;;3.25;69.50;102426.34;5062784;28;45347;-81
2022/01/15 03:35:40;;;;;;;;;10.25;9.75;;;;;3.97;69.78;102533.09;5081618;28;45688;-81
2022/01/15 03:38:21;;;;;;;;;15.25;8.25;;;;;3.57;70.05;102459.25;5081205;28;45433;-81
2022/01/15 03:41:04;;;;;;;;;13.75;13.25;;;;;3.47;70.09;102453.53;5081676;28;45913;-80
2022/01/15 03:43:45;;;;;;;;;13.75;10.25;;;;;2.91;69.85;102378.69;5060631;28;45473;-80
2022/01/15 03:46:10;;;;;;;;;10.75;9.75;;;;;3.77;69.30;102502.66;5061336;28;45604;-80
2022/01/15 03:48:36;;;;;;;;;10.25;8.25;;;;;3.45;70.39;102451.63;5042383;28;47529;-80
2022/01/15 03:51:03;;;;;;;;;17.00;10.75;;;;;3.83;70.01;102522.78;5060840;28;45619;-80
2022/01/15 03:53:28;;;;;;;;;17.50;9.75;;;;;3.14;70.14;102401.59;5061126;28;45375;-81
2022/01/15 03:55:54;;;;;;;;;11.50;10.25;;;;;3.46;70.38;102451.72;5059816;28;45661;-80
2022/01/15 03:58:20;;;;;;;;;10.75;9.75;;;;;3.68;69.76;102492.66;5060528;28;45714;-79
2022/01/15 04:00:45;;;;;;;;;9.75;8.50;;;;;3.78;70.19;102516.47;5060682;28;45351;-79
2022/01/15 04:03:11;;;;;;;;;12.00;10.50;;;;;3.75;70.49;102511.09;5060846;28;45472;-81
2022/01/15 04:05:36;;;;;;;;;12.75;7.50;;;;;3.70;69.74;102504.78;5061181;28;45473;-81
2022/01/15 04:08:02;;;;;;;;;14.25;10.00;;;;;3.46;70.18;102464.59;5080966;28;45483;-81
2022/01/15 04:10:27;;;;;;;;;11.75;10.25;;;;;3.54;70.48;102478.00;5080927;28;45474;-80
2022/01/15 04:12:53;;;;;;;;;14.50;14.00;;;;;3.47;70.59;102463.84;5080906;28;45772;-80
2022/01/15 04:15:19;;;;;;;;;16.50;12.00;;;;;3.40;69.86;102454.78;5081014;28;45439;-81
2022/01/15 04:17:48;;;;;;;;;18.75;14.75;;;;;3.39;70.16;102454.69;5080630;28;46028;-80
2022/01/15 04:20:18;;;;;;;;;12.75;11.00;;;;;3.22;70.57;102430.44;5080821;28;45347;-80
2022/01/15 04:22:43;;;;;;;;;13.75;11.25;;;;;3.52;70.54;102479.59;5080894;28;45478;-80
2022/01/15 04:25:09;;;;;;;;;22.00;15.50;;;;;3.03;70.09;102393.16;5081230;28;45742;-81
2022/01/15 04:27:35;;;;;;;;;13.25;11.50;;;;;3.32;70.62;102437.06;5062479;28;47123;-80
2022/01/15 04:30:03;;;;;;;;;16.00;11.25;;;;;2.77;70.27;102354.63;5080409;28;45436;-82
2022/01/15 04:32:30;;;;;;;;;15.25;12.00;;;;;3.46;70.08;102464.59;5080974;28;45826;-82
2022/01/15 04:34:55;;;;;;;;;16.00;13.50;;;;;2.85;70.00;102354.25;5080929;28;45504;-82
2022/01/15 04:37:23;;;;;;;;;17.00;16.00;;;;;3.37;70.70;102430.56;5080048;28;46214;-82
2022/01/15 04:39:49;;;;;;;;;18.25;14.50;;;;;3.00;70.39;102380.13;5080993;28;45467;-82
2022/01/15 04:42:20;;;;;;;;;15.50;15.25;;;;;2.84;69.90;102349.88;5049758;28;45383;-82
2022/01/15 04:44:46;;;;;;;;;15.75;15.50;;;;;3.11;69.64;102398.81;5060926;28;45493;-81
2022/01/15 04:47:12;;;;;;;;;17.25;14.50;;;;;3.06;69.68;102380.50;5060082;28;45425;-82
2022/01/15 04:49:37;;;;;;;;;12.75;12.25;;;;;3.02;69.86;102389.72;5059971;28;45358;-82
2022/01/15 04:52:03;;;;;;;;;17.50;17.00;;;;;2.97;69.95;102375.63;5060701;28;45478;-82
2022/01/15 04:54:29;;;;;;;;;15.50;12.50;;;;;2.76;70.58;102331.38;5060617;28;45839;-83
2022/01/15 04:56:54;;;;;;;;;15.00;13.00;;;;;3.50;69.46;102460.56;5060127;28;46506;-81
2022/01/15 04:59:20;;;;;;;;;18.50;17.75;;;;;3.26;70.30;102419.53;5059830;28;45374;-82
2022/01/15 05:01:46;;;;;;;;;20.50;15.50;;;;;2.94;69.82;102356.53;5059956;28;45424;-82
2022/01/15 05:04:11;;;;;;;;;11.50;10.75;;;;;2.80;69.69;102341.09;5060071;28;45659;-81
2022/01/15 05:06:37;;;;;;;;;15.00;14.25;;;;;2.75;70.21;102337.28;5067115;28;46111;-82
2022/01/15 05:09:06;;;;;;;;;13.75;10.00;;;;;2.75;69.60;102338.19;5080357;28;45700;-82
2022/01/15 05:11:45;;;;;;;;;14.50;13.75;;;;;3.50;69.12;102458.88;5080431;28;45732;-82
2022/01/15 05:14:11;;;;;;;;;18.25;15.75;;;;;3.45;70.36;102454.19;5080293;28;45306;-81
2022/01/15 05:16:37;;;;;;;;;14.75;14.25;;;;;2.65;69.85;102320.38;5080107;28;45731;-82
2022/01/15 05:19:03;;;;;;;;;17.25;11.50;;;;;3.45;70.25;102459.34;5079585;28;45385;-82
2022/01/15 05:21:29;;;;;;;;;13.25;13.25;;;;;3.41;70.57;102446.31;5079716;28;45871;-82
2022/01/15 05:23:54;;;;;;;;;12.75;11.25;;;;;3.04;70.02;102379.53;5081389;28;45497;-82
2022/01/15 05:26:19;;;;;;;;;1.25;0.00;;;;;2.83;69.73;102361.88;5083553;28;46055;-82
2022/01/15 05:28:45;;;;;;;;;10.75;8.25;;;;;2.53;70.50;102305.00;5083372;28;45444;-82
2022/01/15 05:31:10;;;;;;;;;15.00;10.00;;;;;2.96;69.82;102360.09;5083693;28;45377;-81
2022/01/15 05:33:35;;;;;;;;;10.50;9.25;;;;;2.66;69.55;102311.84;5083846;28;45492;-82
2022/01/15 05:36:01;;;;;;;;;21.75;17.25;;;;;3.35;70.09;102427.88;5083648;28;45405;-82
2022/01/15 05:38:27;;;;;;;;;8.50;3.00;;;;;2.55;69.87;102290.59;5083780;28;45678;-82
2022/01/15 05:40:52;;;;;;;;;16.50;12.75;;;;;3.15;69.94;102405.94;5082887;28;45457;-82
2022/01/15 05:43:18;;;;;;;;;14.50;9.75;;;;;3.39;69.94;102446.97;5063122;28;45395;-82
2022/01/15 05:45:43;;;;;;;;;14.25;13.75;;;;;2.83;70.35;102366.09;5063064;28;45669;-82
2022/01/15 05:48:08;;;;;;;;;15.00;10.00;;;;;2.97;70.21;102406.50;5044788;28;45452;-82
2022/01/15 05:50:34;;;;;;;;;9.50;7.00;;;;;3.02;70.23;102402.56;5044884;28;45540;-81
2022/01/15 05:52:59;;;;;;;;;12.50;9.25;;;;;3.35;70.48;102460.44;5063332;28;45448;-81
2022/01/15 05:55:25;;;;;;;;;26.00;20.25;;;;;2.50;70.38;102323.69;5044677;28;48229;-80
2022/01/15 05:57:51;;;;;;;;;16.00;14.00;;;;;3.17;70.10;102442.97;5062476;28;45597;-82
2022/01/15 06:00:16;;;;;;;;;13.75;13.25;;;;;3.17;70.25;102432.69;5044240;28;45327;-82
2022/01/15 06:02:42;;;;;;;;;14.25;9.75;;;;;2.99;70.18;102415.22;5062738;28;45565;-81
2022/01/15 06:05:08;;;;;;;;;15.50;15.25;;;;;3.34;69.77;102467.25;5062982;28;46089;-82
2022/01/15 06:07:33;;;;;;;;;10.00;9.50;;;;;2.46;70.03;102325.97;5062815;28;45450;-81
2022/01/15 06:09:58;;;;;;;;;16.75;14.50;;;;;2.34;69.76;102318.31;5062718;28;45379;-81
2022/01/15 06:12:29;;;;;;;;;7.50;1.50;;;;;3.14;70.32;102464.28;5062915;28;45395;-81
2022/01/15 06:14:55;;;;;;;;;19.25;19.25;;;;;3.05;70.65;102463.63;5062510;28;46514;-82
2022/01/15 06:17:21;;;;;;;;;18.75;9.50;;;;;2.42;70.86;102358.25;5044268;28;45371;-81
2022/01/15 06:19:46;;;;;;;;;16.75;12.25;;;;;2.87;70.88;102434.97;5062131;28;45357;-82
2022/01/15 06:22:11;;;;;;;;;12.50;10.75;;;;;2.33;71.39;102332.81;5062650;28;45871;-81
2022/01/15 06:24:37;;;;;;;;;11.00;9.25;;;;;2.92;71.38;102419.06;5062242;28;46165;-80
2022/01/15 06:27:03;;;;;;;;;16.25;15.00;;;;;2.94;70.45;102421.72;5062084;28;45282;-80
2022/01/15 06:29:28;;;;;;;;;15.50;11.50;;;;;2.97;70.41;102424.50;5044094;28;45438;-81
2022/01/15 06:31:54;;;;;;;;;18.50;15.50;;;;;3.21;71.15;102449.25;5062274;28;45640;-81
2022/01/15 06:34:19;;;;;;;;;14.75;14.75;;;;;3.11;71.40;102437.41;5063055;28;45550;-81
2022/01/15 06:36:45;;;;;;;;;9.75;9.75;;;;;3.00;70.73;102418.72;5063231;28;45429;-81
2022/01/15 06:39:11;;;;;;;;;15.00;13.25;;;;;3.00;70.75;102414.44;5064415;28;45512;-81
2022/01/15 06:41:36;;;;;;;;;10.75;9.00;;;;;2.88;70.70;102391.34;5078752;28;45801;-81
2022/01/15 06:44:02;;;;;;;;;12.75;11.25;;;;;2.92;70.89;102395.91;5081483;28;45785;-80
2022/01/15 06:46:27;;;;;;;;;9.50;9.50;;;;;2.57;70.98;102349.84;5081562;28;45724;-80
2022/01/15 06:48:52;;;;;;;;;10.25;10.25;;;;;3.02;70.87;102420.59;5082211;28;45388;-81
2022/01/15 06:51:18;;;;;;;;;10.75;7.75;;;;;3.18;70.47;102449.91;5082540;28;45430;-81
2022/01/15 06:53:43;;;;;;;;;16.00;11.25;;;;;3.05;70.91;102409.59;5082314;28;46612;-81
2022/01/15 06:56:09;;;;;;;;;14.75;13.75;;;;;3.25;70.85;102438.34;5082054;28;45761;-81
2022/01/15 06:58:34;;;;;;;;;21.25;15.00;;;;;2.77;71.30;102366.59;5074173;28;45462;-81
2022/01/15 07:00:59;;;;;;;;;17.00;9.50;;;;;3.00;70.57;102405.84;5060614;28;45338;-81
2022/01/15 07:03:25;;;;;;;;;14.00;11.00;;;;;2.78;70.73;102373.50;5073157;28;45369;-80
2022/01/15 07:05:50;;;;;;;;;16.25;15.25;;;;;2.99;71.04;102398.88;5082163;28;45353;-80
2022/01/15 07:08:16;;;;;;;;;14.25;10.50;;;;;2.65;70.23;102331.56;5069767;28;45508;-80
2022/01/15 07:10:41;;;;;;;;;13.00;10.50;;;;;2.62;71.34;102320.16;5081463;28;45386;-80
2022/01/15 07:13:07;;;;;;;;;18.25;15.00;;;;;3.04;70.94;102388.13;5081320;28;45791;-81
2022/01/15 07:15:33;;;;;;;;;14.50;11.00;;;;;3.26;70.55;102417.88;5081421;28;45455;-81
2022/01/15 07:17:59;;;;;;;;;16.00;13.25;;;;;3.29;70.42;102415.50;5081773;28;45507;-79
2022/01/15 07:20:26;;;;;;;;;13.00;12.75;;;;;2.95;70.65;102359.22;5074697;27;45472;-78
2022/01/15 07:22:51;;;;;;;;;15.00;9.25;;;;;2.81;70.26;102332.56;5051819;28;48499;-84
2022/01/15 07:25:17;;;;;;;;;15.25;13.50;;;;;2.58;70.31;102297.59;5058202;28;45457;-80
2022/01/15 07:27:43;;;;;;;;;26.25;15.75;;;;;3.31;70.58;102417.25;5078542;28;45538;-80
2022/01/15 07:30:10;;;;;;;;;19.25;16.75;;;;;2.66;70.88;102317.00;5068411;28;45722;-80
2022/01/15 07:32:36;;;;;;;;;14.50;14.50;;;;;2.81;70.95;102337.72;5075731;28;46367;-81
2022/01/15 07:35:03;;;;;;;;;0.00;0.00;;;;;3.19;70.57;102401.91;5073079;28;45338;-79
2022/01/15 07:37:30;;;;;;;;;12.50;11.25;;;;;2.47;71.26;102289.16;5053252;28;45660;-80
2022/01/15 07:39:55;;;;;;;;;17.75;15.50;;;;;2.43;70.06;102277.81;5056320;28;45561;-83
2022/01/15 07:42:21;;;;;;;;;14.50;14.50;;;;;3.20;70.31;102414.88;5060783;28;46322;-82
2022/01/15 07:44:46;;;;;;;;;16.00;14.00;;;;;3.00;70.49;102378.41;5061022;28;45358;-83
2022/01/15 07:47:12;;;;;;;;;12.00;12.00;;;;;2.47;71.04;102284.94;5060443;28;45627;-83
2022/01/15 07:49:38;;;;;;;;;16.50;12.50;;;;;2.77;70.30;102325.44;5061116;28;45477;-82
2022/01/15 07:52:03;;;;;;;;;16.75;14.00;;;;;2.83;70.83;102350.69;5060129;28;45398;-79
2022/01/15 07:54:29;;;;;;;;;16.00;12.00;;;;;3.26;70.18;102412.72;5057072;28;45470;-85
2022/01/15 07:56:55;;;;;;;;;13.50;9.50;;;;;3.28;70.62;102421.41;5037708;28;45402;-86
2022/01/15 07:59:24;;;;;;;;;21.50;15.75;;;;;3.18;70.29;102398.44;5059739;28;45452;-90
2022/01/15 08:01:49;;;;;;;;;14.50;12.75;;;;;2.92;71.22;102343.56;5053316;28;45468;-87
2022/01/15 08:04:14;;;;;;;;;12.00;9.25;;;;;3.05;70.05;102365.84;5046309;28;45351;-83
2022/01/15 08:06:41;;;;;;;;;17.25;12.00;;;;;2.86;71.04;102344.06;5054260;28;45522;-84
2022/01/15 08:09:07;;;;;;;;;14.75;12.50;;;;;3.10;69.62;102367.06;5053669;28;45919;-85
2022/01/15 08:11:32;;;;;;;;;15.25;11.50;;;;;3.22;70.59;102384.97;5058217;28;47991;-85
2022/01/15 08:13:57;;;;;;;;;12.00;8.25;;;;;3.12;70.18;102362.00;5040618;28;46113;-82
2022/01/15 08:16:23;;;;;;;;;15.75;12.75;;;;;3.14;70.26;102352.69;5060662;28;45319;-83
2022/01/15 08:18:49;;;;;;;;;16.00;15.00;;;;;3.35;70.23;102409.84;5043091;28;45419;-83
2022/01/15 08:21:14;;;;;;;;;13.75;11.25;;;;;2.96;70.40;102332.69;5062135;28;45643;-84
2022/01/15 08:23:39;;;;;;;;;14.75;13.25;;;;;3.09;70.39;102339.53;5063280;28;45369;-84
2022/01/15 08:26:05;;;;;;;;;9.75;9.50;;;;;3.24;69.70;102355.06;5043062;28;45316;-85
2022/01/15 08:28:30;;;;;;;;;24.75;16.75;;;;;3.43;69.88;102384.56;5057307;28;45368;-85
2022/01/15 08:30:56;;;;;;;;;14.25;12.75;;;;;3.51;70.19;102398.84;5036968;28;47061;-88
2022/01/15 08:33:23;;;;;;;;;10.00;10.00;;;;;3.36;69.52;102372.09;5039399;28;45313;-90
2022/01/15 08:35:48;;;;;;;;;15.00;13.00;;;;;2.74;70.19;102256.69;5074924;28;45228;-90
2022/01/15 08:38:14;;;;;;;;;13.25;10.25;;;;;2.92;70.27;102282.69;5057186;28;44812;-89
2022/01/15 08:40:39;;;;;;;;;13.50;9.50;;;;;3.13;69.74;102322.63;5047173;28;47132;-84
2022/01/15 08:43:05;;;;;;;;;9.75;9.75;;;;;3.07;69.90;102312.81;5067586;28;45497;-90
2022/01/15 08:45:30;;;;;;;;;11.50;9.00;;;;;3.28;70.46;102356.19;5048295;28;45466;-82
2022/01/15 08:47:56;;;;;;;;;12.75;10.00;;;;;3.66;70.22;102403.22;5066156;28;45393;-87
2022/01/15 08:50:23;;;;;;;;;14.00;12.50;;;;;3.68;69.86;102409.38;5037976;28;48076;-86
2022/01/15 08:52:48;;;;;;;;;15.25;9.75;;;;;3.63;70.21;102405.59;5056742;28;45551;-82
2022/01/15 08:55:15;;;;;;;;;20.25;18.25;;;;;3.48;70.47;102396.09;5041707;28;45823;-82
2022/01/15 08:57:42;;;;;;;;;15.25;13.25;;;;;2.96;69.62;102314.69;5055706;28;45439;-83
2022/01/15 09:00:11;;;;;;;;;8.50;8.25;;;;;3.19;70.21;102371.91;5061768;28;47010;-84
2022/01/15 09:02:37;;;;;;;;;14.75;12.00;;;;;3.06;70.42;102341.91;5069973;28;45375;-85
2022/01/15 09:05:04;;;;;;;;;15.00;12.00;;;;;3.61;70.31;102427.78;5051619;28;45467;-86
2022/01/15 09:07:29;;;;;;;;;13.00;9.00;;;;;3.42;70.40;102367.34;5073439;28;45339;-87
2022/01/15 09:09:54;;;;;;;;;13.50;9.75;;;;;3.48;70.78;102362.59;5056564;28;47037;-86
2022/01/15 09:12:22;;;;;;;;;12.50;12.25;;;;;3.67;70.46;102379.22;5075668;28;45308;-87
2022/01/15 09:14:48;;;;;;;;;14.25;12.25;;;;;3.72;70.03;102395.88;5067397;28;45299;-85
2022/01/15 09:17:14;;;;;;;;;13.25;12.75;;;;;3.47;69.94;102341.91;5051414;28;45415;-85
2022/01/15 09:19:39;;;;;;;;;15.75;13.25;;;;;3.86;70.24;102424.22;5070076;28;46193;-84
2022/01/15 09:22:08;;;;;;;;;12.25;11.50;;;;;3.89;69.58;102424.41;5067579;28;45332;-84
2022/01/15 09:24:34;;;;;;;;;8.50;8.00;;;;;3.67;69.73;102366.34;5050247;28;45453;-88
2022/01/15 09:27:02;;;;;;;;;12.75;9.00;;;;;4.13;69.60;102412.16;5055145;28;45584;-88
2022/01/15 09:32:13;;;;;;;;;19.00;13.00;;;;;4.37;69.37;102414.47;5073789;28;45378;-86
2022/01/15 09:34:38;;;;;;;;;16.00;13.00;;;;;4.42;68.84;102415.66;5050344;28;45321;-89
2022/01/15 09:37:06;;;;;;;;;13.00;9.50;;;;;4.53;69.06;102420.53;5063201;28;44789;-88
2022/01/15 09:39:32;;;;;;;;;14.75;12.25;;;;;4.47;68.74;102394.41;5074772;28;45331;-89
2022/01/15 09:41:58;;;;;;;;;16.00;14.75;;;;;4.42;69.13;102382.13;5075722;28;45268;-89
2022/01/15 09:44:25;;;;;;;;;14.00;9.75;;;;;4.25;68.88;102350.16;5057828;28;45400;-87
2022/01/15 09:46:51;;;;;;;;;13.25;11.25;;;;;4.49;67.95;102375.63;5084953;28;44802;-87
2022/01/15 09:49:19;;;;;;;;;10.50;10.50;;;;;4.74;68.08;102404.56;5065990;28;47460;-88
2022/01/15 09:51:45;;;;;;;;;18.50;13.25;;;;;4.97;68.36;102418.88;5079239;28;45377;-89
2022/01/15 09:54:16;;;;;;;;;14.75;14.25;;;;;5.02;68.03;102409.69;5056062;28;44797;-86
2022/01/15 09:56:42;;;;;;;;;15.50;11.75;;;;;5.12;67.62;102416.31;5070574;28;45485;-88
2022/01/15 09:59:08;;;;;;;;;10.75;10.50;;;;;5.06;67.67;102382.38;5048666;28;48215;-89
2022/01/15 10:01:34;;;;;;;;;13.50;13.00;;;;;5.26;67.41;102416.19;5068651;28;45340;-89
2022/01/15 10:04:00;;;;;;;;;15.25;12.00;;;;;5.12;67.63;102377.56;5068738;28;45364;-88
2022/01/15 10:06:26;;;;;;;;;16.25;14.50;;;;;5.24;67.34;102407.47;5052062;28;45511;-89
2022/01/15 10:09:06;;;;;;;;;10.75;10.75;;;;;4.99;67.66;102344.97;5050461;28;47017;-88
2022/01/15 10:11:51;;;;;;;;;12.75;10.75;;;;;5.20;67.50;102394.38;5052667;28;45339;-89
2022/01/15 10:14:26;;;;;;;;;6.00;5.50;;;;;5.17;67.09;102382.97;5069297;28;45348;-89
2022/01/15 10:16:51;;;;;;;;;17.50;17.50;;;;;5.21;67.49;102413.34;5085563;28;45501;-88
2022/01/15 10:19:34;;;;;;;;;21.50;14.25;;;;;4.99;67.82;102383.69;5056474;28;47112;-88
2022/01/15 10:22:40;;;;;;;;;21.25;18.25;;;;;5.17;67.48;102416.53;5062000;28;45232;-88
2022/01/15 10:25:10;;;;;;;;;20.75;15.00;;;;;5.12;67.91;102398.22;5070276;28;45365;-89
2022/01/15 10:27:47;;;;;;;;;17.00;13.00;;;;;5.10;67.13;102380.84;5049265;28;45397;-89
2022/01/15 10:30:16;;;;;;;;;20.50;15.25;;;;;5.31;67.27;102395.00;5065532;28;45791;-88
2022/01/15 10:33:02;;;;;;;;;15.50;15.25;;;;;5.39;67.37;102417.81;5051949;28;45162;-89
2022/01/15 10:35:31;;;;;;;;;20.50;16.25;;;;;5.33;67.14;102403.72;5049633;28;45865;-89
2022/01/15 10:38:09;;;;;;;;;20.25;15.75;;;;;5.17;66.68;102352.00;5043126;28;44848;-89
2022/01/15 10:40:55;;;;;;;;;15.00;14.25;;;;;5.50;67.33;102387.38;5051993;28;46589;-89
2022/01/15 10:43:34;;;;;;;;;22.75;16.75;;;;;5.12;66.75;102314.72;5035323;28;44908;-88
2022/01/15 10:46:02;;;;;;;;;22.00;15.75;;;;;5.00;66.69;102291.66;5068209;28;45575;-88
2022/01/15 10:48:35;;;;;;;;;18.50;15.25;;;;;5.24;66.98;102325.72;5050454;28;45390;-88
2022/01/15 10:51:11;;;;;;;;;15.25;11.50;;;;;4.99;66.94;102262.38;5052987;28;47568;-89
2022/01/15 10:54:01;;;;;;;;;16.50;14.50;;;;;5.14;66.15;102264.94;5051896;28;45822;-88
2022/01/15 11:09:58;;;;;;;;;19.25;14.50;;;;;5.54;66.09;102268.81;5017880;28;45338;-89
2022/01/15 11:12:27;;;;;;;;;23.75;17.25;;;;;5.43;65.89;102233.78;5057614;28;44939;-89
2022/01/15 11:14:53;;;;;;;;;16.00;15.50;;;;;5.67;66.03;102280.69;5054617;28;47443;-87
2022/01/15 11:17:18;;;;;;;;;23.75;18.25;;;;;6.31;65.48;102368.50;5071958;28;45331;-87
2022/01/15 11:19:45;;;;;;;;;22.75;18.75;;;;;5.97;65.46;102302.91;5058568;28;45192;-88
2022/01/15 11:22:17;;;;;;;;;24.00;16.50;;;;;6.28;65.47;102364.03;5059625;28;44906;-87
2022/01/15 11:24:44;;;;;;;;;29.00;22.50;;;;;5.75;65.57;102262.13;5060352;28;47330;-87
2022/01/15 11:27:10;;;;;;;;;16.00;14.25;;;;;5.52;65.68;102223.03;5060825;28;44881;-88
2022/01/15 11:29:36;;;;;;;;;20.25;16.50;;;;;5.73;65.19;102240.50;5057361;28;45324;-88
2022/01/15 11:32:03;;;;;;;;;22.75;20.00;;;;;6.06;65.33;102284.44;5073392;28;45405;-89
2022/01/15 11:34:29;;;;;;;;;24.50;23.75;;;;;5.83;64.95;102219.50;5062877;28;45656;-88
2022/01/15 11:36:55;;;;;;;;;18.75;17.75;;;;;6.15;65.46;102284.94;5054416;28;44813;-88
2022/01/15 11:39:34;;;;;;;;;18.75;17.25;;;;;5.82;65.19;102228.94;5056709;28;44818;-87
2022/01/15 11:42:02;;;;;;;;;26.00;18.75;;;;;6.19;64.74;102292.03;5052728;28;45429;-87
2022/01/15 11:44:31;;;;;;;;;20.00;16.75;;;;;6.43;64.63;102313.94;5073477;28;47631;-88
2022/01/15 11:47:00;;;;;;;;;24.50;19.75;;;;;5.83;65.10;102214.31;5066049;28;45352;-87
2022/01/15 11:49:26;;;;;;;;;20.50;18.75;;;;;6.18;64.99;102251.47;5050675;28;45284;-87
2022/01/15 11:52:12;;;;;;;;;21.25;17.25;;;;;6.52;64.68;102316.09;5037126;28;45438;-88
2022/01/15 11:54:38;;;;;;;;;14.00;12.25;;;;;6.35;64.38;102269.56;5040086;28;47203;-87